sensor_id;sensor_type;location;lat;lon;timestamp;temperature;humidity
18218;DHT22;9234;49.344;11.120;2023-07-20T00:00:32;17.50;99.90
18218;DHT22;9234;49.344;11.120;2023-07-20T00:03:14;17.60;99.90
18218;DHT22;9234;49.344;11.120;2023-07-20T00:05:46;17.60;99.90
18218;DHT22;9234;49.344;11.120;2023-07-20T00:08:15;17.60;99.90
18218;DHT22;9234;49.344;11.120;2023-07-20T00:10:43;17.60;99.90
18218;DHT22;9234;49.344;11.120;2023-07-20T00:13:13;17.60;99.90
18218;DHT22;9234;49.344;11.120;2023-07-20T00:15:42;17.70;99.90
18218;DHT22;9234;49.344;11.120;2023-07-20T00:18:11;17.70;99.90
18218;DHT22;9234;49.344;11.120;2023-07-20T00:20:40;17.70;99.90
18218;DHT22;9234;49.344;11.120;2023-07-20T00:23:08;17.70;99.90
18218;DHT22;9234;49.344;11.120;2023-07-20T00:25:37;17.70;99.90
18218;DHT22;9234;49.344;11.120;2023-07-20T00:28:05;17.70;99.90
18218;DHT22;9234;49.344;11.120;2023-07-20T00:30:35;17.70;99.90
18218;DHT22;9234;49.344;11.120;2023-07-20T00:33:09;17.70;99.90
18218;DHT22;9234;49.344;11.120;2023-07-20T00:35:39;17.70;99.90
18218;DHT22;9234;49.344;11.120;2023-07-20T00:38:07;17.70;99.90
18218;DHT22;9234;49.344;11.120;2023-07-20T00:40:36;17.70;99.90
18218;DHT22;9234;49.344;11.120;2023-07-20T00:43:05;17.60;99.90
18218;DHT22;9234;49.344;11.120;2023-07-20T00:45:36;17.60;99.90
18218;DHT22;9234;49.344;11.120;2023-07-20T00:48:06;17.60;99.90
18218;DHT22;9234;49.344;11.120;2023-07-20T00:50:36;17.60;99.90
18218;DHT22;9234;49.344;11.120;2023-07-20T00:53:08;17.60;99.90
18218;DHT22;9234;49.344;11.120;2023-07-20T00:55:37;17.50;99.90
18218;DHT22;9234;49.344;11.120;2023-07-20T00:58:07;17.50;99.90
18218;DHT22;9234;49.344;11.120;2023-07-20T01:00:37;17.50;99.90
18218;DHT22;9234;49.344;11.120;2023-07-20T01:03:05;17.50;99.90
18218;DHT22;9234;49.344;11.120;2023-07-20T01:05:40;17.50;99.90
18218;DHT22;9234;49.344;11.120;2023-07-20T01:08:26;17.50;99.90
18218;DHT22;9234;49.344;11.120;2023-07-20T01:11:06;17.40;99.90
18218;DHT22;9234;49.344;11.120;2023-07-20T01:13:40;17.50;99.90
18218;DHT22;9234;49.344;11.120;2023-07-20T01:16:12;17.50;99.90
18218;DHT22;9234;49.344;11.120;2023-07-20T01:18:40;17.50;99.90
18218;DHT22;9234;49.344;11.120;2023-07-20T01:21:13;17.40;99.90
18218;DHT22;9234;49.344;11.120;2023-07-20T01:24:13;17.40;99.90
18218;DHT22;9234;49.344;11.120;2023-07-20T01:30:50;17.40;99.90
18218;DHT22;9234;49.344;11.120;2023-07-20T01:33:25;17.40;99.90
18218;DHT22;9234;49.344;11.120;2023-07-20T01:35:56;17.30;99.90
18218;DHT22;9234;49.344;11.120;2023-07-20T01:38:28;17.30;99.90
18218;DHT22;9234;49.344;11.120;2023-07-20T01:40:57;17.30;99.90
18218;DHT22;9234;49.344;11.120;2023-07-20T01:43:26;17.30;99.90
18218;DHT22;9234;49.344;11.120;2023-07-20T01:45:55;17.30;99.90
18218;DHT22;9234;49.344;11.120;2023-07-20T01:48:25;17.30;99.90
18218;DHT22;9234;49.344;11.120;2023-07-20T01:50:53;17.20;99.90
18218;DHT22;9234;49.344;11.120;2023-07-20T01:53:22;17.20;99.90
18218;DHT22;9234;49.344;11.120;2023-07-20T01:55:52;17.20;99.90
18218;DHT22;9234;49.344;11.120;2023-07-20T01:58:22;17.20;99.90
18218;DHT22;9234;49.344;11.120;2023-07-20T02:00:51;17.20;99.90
18218;DHT22;9234;49.344;11.120;2023-07-20T02:03:20;17.20;99.90
18218;DHT22;9234;49.344;11.120;2023-07-20T02:05:52;17.20;99.90
18218;DHT22;9234;49.344;11.120;2023-07-20T02:08:20;17.20;99.90
18218;DHT22;9234;49.344;11.120;2023-07-20T02:10:49;17.20;99.90
18218;DHT22;9234;49.344;11.120;2023-07-20T02:13:17;17.20;99.90
18218;DHT22;9234;49.344;11.120;2023-07-20T02:15:46;17.20;99.90
18218;DHT22;9234;49.344;11.120;2023-07-20T02:18:16;17.30;99.90
18218;DHT22;9234;49.344;11.120;2023-07-20T02:20:44;17.30;99.90
18218;DHT22;9234;49.344;11.120;2023-07-20T02:23:14;17.30;99.90
18218;DHT22;9234;49.344;11.120;2023-07-20T02:25:43;17.20;99.90
18218;DHT22;9234;49.344;11.120;2023-07-20T02:28:13;17.20;99.90
18218;DHT22;9234;49.344;11.120;2023-07-20T02:30:42;17.20;99.90
18218;DHT22;9234;49.344;11.120;2023-07-20T02:33:10;17.20;99.90
18218;DHT22;9234;49.344;11.120;2023-07-20T02:35:40;17.20;99.90
18218;DHT22;9234;49.344;11.120;2023-07-20T02:38:09;17.20;99.90
18218;DHT22;9234;49.344;11.120;2023-07-20T02:40:38;17.20;99.90
18218;DHT22;9234;49.344;11.120;2023-07-20T02:43:08;17.20;99.90
18218;DHT22;9234;49.344;11.120;2023-07-20T02:45:40;17.10;99.90
18218;DHT22;9234;49.344;11.120;2023-07-20T02:48:09;17.10;99.90
18218;DHT22;9234;49.344;11.120;2023-07-20T02:50:40;17.10;99.90
18218;DHT22;9234;49.344;11.120;2023-07-20T02:53:09;17.20;99.90
18218;DHT22;9234;49.344;11.120;2023-07-20T02:55:39;17.20;99.90
18218;DHT22;9234;49.344;11.120;2023-07-20T02:58:08;17.20;99.90
18218;DHT22;9234;49.344;11.120;2023-07-20T03:00:36;17.20;99.90
18218;DHT22;9234;49.344;11.120;2023-07-20T03:03:04;17.20;99.90
18218;DHT22;9234;49.344;11.120;2023-07-20T03:05:36;17.20;99.90
18218;DHT22;9234;49.344;11.120;2023-07-20T03:08:08;17.20;99.90
18218;DHT22;9234;49.344;11.120;2023-07-20T03:10:40;17.20;99.90
18218;DHT22;9234;49.344;11.120;2023-07-20T03:13:08;17.20;99.90
18218;DHT22;9234;49.344;11.120;2023-07-20T03:15:38;17.20;99.90
18218;DHT22;9234;49.344;11.120;2023-07-20T03:18:06;17.30;99.90
18218;DHT22;9234;49.344;11.120;2023-07-20T03:20:35;17.20;99.90
18218;DHT22;9234;49.344;11.120;2023-07-20T03:23:04;17.30;99.90
18218;DHT22;9234;49.344;11.120;2023-07-20T03:25:33;17.30;99.90
18218;DHT22;9234;49.344;11.120;2023-07-20T03:28:05;17.40;99.90
18218;DHT22;9234;49.344;11.120;2023-07-20T03:30:35;17.40;99.90
18218;DHT22;9234;49.344;11.120;2023-07-20T03:33:03;17.50;99.90
18218;DHT22;9234;49.344;11.120;2023-07-20T03:35:32;17.50;99.90
18218;DHT22;9234;49.344;11.120;2023-07-20T03:38:00;17.50;99.90
18218;DHT22;9234;49.344;11.120;2023-07-20T03:40:29;17.50;99.90
18218;DHT22;9234;49.344;11.120;2023-07-20T03:42:57;17.60;99.90
18218;DHT22;9234;49.344;11.120;2023-07-20T03:45:27;17.50;99.90
18218;DHT22;9234;49.344;11.120;2023-07-20T03:47:55;17.50;99.90
18218;DHT22;9234;49.344;11.120;2023-07-20T03:50:24;17.50;99.90
18218;DHT22;9234;49.344;11.120;2023-07-20T03:52:52;17.40;99.90
18218;DHT22;9234;49.344;11.120;2023-07-20T03:55:21;17.40;99.90
18218;DHT22;9234;49.344;11.120;2023-07-20T03:57:49;17.30;99.90
18218;DHT22;9234;49.344;11.120;2023-07-20T04:00:18;17.30;99.90
18218;DHT22;9234;49.344;11.120;2023-07-20T04:02:50;17.30;99.90
18218;DHT22;9234;49.344;11.120;2023-07-20T04:05:19;17.30;99.90
18218;DHT22;9234;49.344;11.120;2023-07-20T04:07:47;17.30;99.90
18218;DHT22;9234;49.344;11.120;2023-07-20T04:10:16;17.20;99.90
18218;DHT22;9234;49.344;11.120;2023-07-20T04:12:45;17.20;99.90
18218;DHT22;9234;49.344;11.120;2023-07-20T04:15:14;17.20;99.90
18218;DHT22;9234;49.344;11.120;2023-07-20T04:17:42;17.20;99.90
18218;DHT22;9234;49.344;11.120;2023-07-20T04:20:14;17.20;99.90
18218;DHT22;9234;49.344;11.120;2023-07-20T04:22:45;17.30;99.90
18218;DHT22;9234;49.344;11.120;2023-07-20T04:25:15;17.30;99.90
18218;DHT22;9234;49.344;11.120;2023-07-20T04:27:43;17.30;99.90
18218;DHT22;9234;49.344;11.120;2023-07-20T04:30:12;17.30;99.90
18218;DHT22;9234;49.344;11.120;2023-07-20T04:32:42;17.30;99.90
18218;DHT22;9234;49.344;11.120;2023-07-20T04:35:18;17.30;99.90
18218;DHT22;9234;49.344;11.120;2023-07-20T04:38:08;17.30;99.90
18218;DHT22;9234;49.344;11.120;2023-07-20T04:40:37;17.40;99.90
18218;DHT22;9234;49.344;11.120;2023-07-20T04:43:05;17.40;99.90
18218;DHT22;9234;49.344;11.120;2023-07-20T04:45:34;17.50;99.90
18218;DHT22;9234;49.344;11.120;2023-07-20T04:48:02;17.50;99.90
18218;DHT22;9234;49.344;11.120;2023-07-20T04:50:34;17.60;99.90
18218;DHT22;9234;49.344;11.120;2023-07-20T04:53:03;17.60;99.90
18218;DHT22;9234;49.344;11.120;2023-07-20T04:55:32;17.60;99.90
18218;DHT22;9234;49.344;11.120;2023-07-20T04:58:01;17.70;99.90
18218;DHT22;9234;49.344;11.120;2023-07-20T05:00:32;17.60;99.90
18218;DHT22;9234;49.344;11.120;2023-07-20T05:03:01;17.70;99.90
18218;DHT22;9234;49.344;11.120;2023-07-20T05:05:34;17.70;99.90
18218;DHT22;9234;49.344;11.120;2023-07-20T05:08:03;17.70;99.90
18218;DHT22;9234;49.344;11.120;2023-07-20T05:10:32;17.80;99.90
18218;DHT22;9234;49.344;11.120;2023-07-20T05:13:01;17.90;99.90
18218;DHT22;9234;49.344;11.120;2023-07-20T05:15:29;17.90;99.90
18218;DHT22;9234;49.344;11.120;2023-07-20T05:18:00;18.00;99.90
18218;DHT22;9234;49.344;11.120;2023-07-20T05:20:29;18.00;99.90
18218;DHT22;9234;49.344;11.120;2023-07-20T05:23:00;18.10;99.90
18218;DHT22;9234;49.344;11.120;2023-07-20T05:25:28;18.00;99.90
18218;DHT22;9234;49.344;11.120;2023-07-20T05:27:57;18.00;99.90
18218;DHT22;9234;49.344;11.120;2023-07-20T05:30:25;18.10;99.90
18218;DHT22;9234;49.344;11.120;2023-07-20T05:32:55;18.10;99.90
18218;DHT22;9234;49.344;11.120;2023-07-20T05:35:25;18.20;99.90
18218;DHT22;9234;49.344;11.120;2023-07-20T05:37:53;18.20;99.90
18218;DHT22;9234;49.344;11.120;2023-07-20T05:40:23;18.30;99.90
18218;DHT22;9234;49.344;11.120;2023-07-20T05:42:51;18.20;99.90
18218;DHT22;9234;49.344;11.120;2023-07-20T05:45:20;18.20;99.90
18218;DHT22;9234;49.344;11.120;2023-07-20T05:47:48;18.30;99.90
18218;DHT22;9234;49.344;11.120;2023-07-20T05:50:17;18.40;99.90
18218;DHT22;9234;49.344;11.120;2023-07-20T05:52:45;18.40;99.90
18218;DHT22;9234;49.344;11.120;2023-07-20T05:55:14;18.50;99.90
18218;DHT22;9234;49.344;11.120;2023-07-20T05:57:45;18.50;99.90
18218;DHT22;9234;49.344;11.120;2023-07-20T06:00:15;18.50;99.90
18218;DHT22;9234;49.344;11.120;2023-07-20T06:02:46;18.40;99.90
18218;DHT22;9234;49.344;11.120;2023-07-20T06:05:15;18.40;99.90
18218;DHT22;9234;49.344;11.120;2023-07-20T06:07:43;18.50;99.90
18218;DHT22;9234;49.344;11.120;2023-07-20T06:10:11;18.60;99.90
18218;DHT22;9234;49.344;11.120;2023-07-20T06:12:39;18.60;99.90
18218;DHT22;9234;49.344;11.120;2023-07-20T06:15:24;18.70;99.90
18218;DHT22;9234;49.344;11.120;2023-07-20T06:17:54;18.70;99.90
18218;DHT22;9234;49.344;11.120;2023-07-20T06:20:25;18.80;99.90
18218;DHT22;9234;49.344;11.120;2023-07-20T06:22:53;18.80;99.90
18218;DHT22;9234;49.344;11.120;2023-07-20T06:25:21;18.80;99.90
18218;DHT22;9234;49.344;11.120;2023-07-20T06:27:50;18.80;99.90
18218;DHT22;9234;49.344;11.120;2023-07-20T06:30:20;18.80;99.90
18218;DHT22;9234;49.344;11.120;2023-07-20T06:32:51;18.80;99.90
18218;DHT22;9234;49.344;11.120;2023-07-20T06:35:19;18.80;99.90
18218;DHT22;9234;49.344;11.120;2023-07-20T06:37:48;18.80;99.90
18218;DHT22;9234;49.344;11.120;2023-07-20T06:40:16;18.90;99.90
18218;DHT22;9234;49.344;11.120;2023-07-20T06:42:47;18.90;99.90
18218;DHT22;9234;49.344;11.120;2023-07-20T06:45:20;18.90;99.90
18218;DHT22;9234;49.344;11.120;2023-07-20T06:47:48;19.00;99.90
18218;DHT22;9234;49.344;11.120;2023-07-20T06:50:16;19.20;99.90
18218;DHT22;9234;49.344;11.120;2023-07-20T06:52:45;19.30;99.90
18218;DHT22;9234;49.344;11.120;2023-07-20T06:55:15;19.40;99.90
18218;DHT22;9234;49.344;11.120;2023-07-20T06:57:49;19.50;99.90
18218;DHT22;9234;49.344;11.120;2023-07-20T07:00:20;19.60;99.90
18218;DHT22;9234;49.344;11.120;2023-07-20T07:02:48;19.70;99.90
18218;DHT22;9234;49.344;11.120;2023-07-20T07:05:17;19.80;99.90
18218;DHT22;9234;49.344;11.120;2023-07-20T07:07:47;19.90;99.90
18218;DHT22;9234;49.344;11.120;2023-07-20T07:10:15;20.00;99.90
18218;DHT22;9234;49.344;11.120;2023-07-20T07:12:44;20.00;99.90
18218;DHT22;9234;49.344;11.120;2023-07-20T07:15:13;20.10;99.90
18218;DHT22;9234;49.344;11.120;2023-07-20T07:17:42;20.20;99.90
18218;DHT22;9234;49.344;11.120;2023-07-20T07:20:11;20.10;99.90
18218;DHT22;9234;49.344;11.120;2023-07-20T07:22:47;20.20;99.90
18218;DHT22;9234;49.344;11.120;2023-07-20T07:25:18;20.20;99.90
18218;DHT22;9234;49.344;11.120;2023-07-20T07:27:50;20.20;99.90
18218;DHT22;9234;49.344;11.120;2023-07-20T07:30:19;20.30;99.90
18218;DHT22;9234;49.344;11.120;2023-07-20T07:32:49;20.40;99.90
18218;DHT22;9234;49.344;11.120;2023-07-20T07:35:17;20.50;99.90
18218;DHT22;9234;49.344;11.120;2023-07-20T07:37:46;20.50;99.30
18218;DHT22;9234;49.344;11.120;2023-07-20T07:40:17;20.60;98.70
18218;DHT22;9234;49.344;11.120;2023-07-20T07:42:45;20.70;98.70
18218;DHT22;9234;49.344;11.120;2023-07-20T07:45:14;20.80;98.70
18218;DHT22;9234;49.344;11.120;2023-07-20T07:47:43;21.00;98.50
18218;DHT22;9234;49.344;11.120;2023-07-20T07:50:13;21.10;97.00
18218;DHT22;9234;49.344;11.120;2023-07-20T07:52:41;21.10;95.90
18218;DHT22;9234;49.344;11.120;2023-07-20T07:55:09;21.20;95.70
18218;DHT22;9234;49.344;11.120;2023-07-20T07:57:37;21.20;95.90
18218;DHT22;9234;49.344;11.120;2023-07-20T08:00:07;21.30;95.40
18218;DHT22;9234;49.344;11.120;2023-07-20T08:02:39;21.20;94.80
18218;DHT22;9234;49.344;11.120;2023-07-20T08:05:07;21.20;94.90
18218;DHT22;9234;49.344;11.120;2023-07-20T08:07:37;21.20;95.20
18218;DHT22;9234;49.344;11.120;2023-07-20T08:10:07;21.30;94.10
18218;DHT22;9234;49.344;11.120;2023-07-20T08:12:36;21.30;93.30
18218;DHT22;9234;49.344;11.120;2023-07-20T08:15:05;21.40;93.10
18218;DHT22;9234;49.344;11.120;2023-07-20T08:17:34;21.40;93.20
18218;DHT22;9234;49.344;11.120;2023-07-20T08:20:03;21.50;93.30
18218;DHT22;9234;49.344;11.120;2023-07-20T08:22:33;21.60;92.90
18218;DHT22;9234;49.344;11.120;2023-07-20T08:25:03;21.50;92.60
18218;DHT22;9234;49.344;11.120;2023-07-20T08:27:31;21.50;92.80
18218;DHT22;9234;49.344;11.120;2023-07-20T08:30:00;21.50;92.80
18218;DHT22;9234;49.344;11.120;2023-07-20T08:32:28;21.60;93.20
18218;DHT22;9234;49.344;11.120;2023-07-20T08:34:57;21.80;93.40
18218;DHT22;9234;49.344;11.120;2023-07-20T08:37:25;21.90;92.00
18218;DHT22;9234;49.344;11.120;2023-07-20T08:39:53;21.90;91.10
18218;DHT22;9234;49.344;11.120;2023-07-20T08:42:23;21.90;90.50
18218;DHT22;9234;49.344;11.120;2023-07-20T08:44:52;22.00;86.80
18218;DHT22;9234;49.344;11.120;2023-07-20T08:47:22;22.10;85.80
18218;DHT22;9234;49.344;11.120;2023-07-20T08:49:55;22.30;86.20
18218;DHT22;9234;49.344;11.120;2023-07-20T08:52:24;22.40;84.50
18218;DHT22;9234;49.344;11.120;2023-07-20T08:54:52;22.50;85.40
18218;DHT22;9234;49.344;11.120;2023-07-20T08:57:23;22.40;84.10
18218;DHT22;9234;49.344;11.120;2023-07-20T08:59:52;22.30;84.80
18218;DHT22;9234;49.344;11.120;2023-07-20T09:02:25;22.40;85.00
18218;DHT22;9234;49.344;11.120;2023-07-20T09:04:55;22.50;83.40
18218;DHT22;9234;49.344;11.120;2023-07-20T09:07:24;22.60;81.40
18218;DHT22;9234;49.344;11.120;2023-07-20T09:09:53;22.80;82.80
18218;DHT22;9234;49.344;11.120;2023-07-20T09:12:26;23.00;80.90
18218;DHT22;9234;49.344;11.120;2023-07-20T09:14:57;23.10;79.90
18218;DHT22;9234;49.344;11.120;2023-07-20T09:17:26;23.00;80.70
18218;DHT22;9234;49.344;11.120;2023-07-20T09:19:56;23.00;80.30
18218;DHT22;9234;49.344;11.120;2023-07-20T09:22:29;22.90;78.50
18218;DHT22;9234;49.344;11.120;2023-07-20T09:24:58;22.80;78.60
18218;DHT22;9234;49.344;11.120;2023-07-20T09:27:34;22.70;77.80
18218;DHT22;9234;49.344;11.120;2023-07-20T09:30:05;22.80;78.60
18218;DHT22;9234;49.344;11.120;2023-07-20T09:32:39;22.70;77.30
18218;DHT22;9234;49.344;11.120;2023-07-20T09:35:14;22.70;78.90
18218;DHT22;9234;49.344;11.120;2023-07-20T09:37:47;23.00;77.80
18218;DHT22;9234;49.344;11.120;2023-07-20T09:40:39;23.40;75.90
18218;DHT22;9234;49.344;11.120;2023-07-20T09:43:12;23.70;75.60
18218;DHT22;9234;49.344;11.120;2023-07-20T09:45:43;23.80;72.70
18218;DHT22;9234;49.344;11.120;2023-07-20T09:48:15;23.60;74.00
18218;DHT22;9234;49.344;11.120;2023-07-20T09:50:49;23.40;75.50
18218;DHT22;9234;49.344;11.120;2023-07-20T09:53:19;23.40;76.10
18218;DHT22;9234;49.344;11.120;2023-07-20T09:55:48;23.40;75.40
18218;DHT22;9234;49.344;11.120;2023-07-20T09:58:18;23.40;74.10
18218;DHT22;9234;49.344;11.120;2023-07-20T10:00:48;23.30;74.60
18218;DHT22;9234;49.344;11.120;2023-07-20T10:03:22;23.30;74.50
18218;DHT22;9234;49.344;11.120;2023-07-20T10:05:56;23.40;75.20
18218;DHT22;9234;49.344;11.120;2023-07-20T10:08:27;23.70;74.80
18218;DHT22;9234;49.344;11.120;2023-07-20T10:11:02;24.20;71.40
18218;DHT22;9234;49.344;11.120;2023-07-20T10:13:36;24.80;70.90
18218;DHT22;9234;49.344;11.120;2023-07-20T10:16:10;25.10;66.10
18218;DHT22;9234;49.344;11.120;2023-07-20T10:18:51;25.10;66.80
18218;DHT22;9234;49.344;11.120;2023-07-20T10:21:27;24.90;65.90
18218;DHT22;9234;49.344;11.120;2023-07-20T10:24:01;24.80;67.20
18218;DHT22;9234;49.344;11.120;2023-07-20T10:26:30;25.00;67.50
18218;DHT22;9234;49.344;11.120;2023-07-20T10:29:01;25.20;66.90
18218;DHT22;9234;49.344;11.120;2023-07-20T10:31:30;25.50;67.10
18218;DHT22;9234;49.344;11.120;2023-07-20T10:34:02;25.60;65.20
18218;DHT22;9234;49.344;11.120;2023-07-20T10:36:31;25.60;63.40
18218;DHT22;9234;49.344;11.120;2023-07-20T10:38:59;25.40;64.10
18218;DHT22;9234;49.344;11.120;2023-07-20T10:41:28;25.20;63.80
18218;DHT22;9234;49.344;11.120;2023-07-20T10:44:00;25.00;64.80
18218;DHT22;9234;49.344;11.120;2023-07-20T10:46:39;24.90;64.00
18218;DHT22;9234;49.344;11.120;2023-07-20T10:49:13;24.90;64.60
18218;DHT22;9234;49.344;11.120;2023-07-20T10:51:44;25.10;64.30
18218;DHT22;9234;49.344;11.120;2023-07-20T10:54:47;25.00;64.30
18218;DHT22;9234;49.344;11.120;2023-07-20T10:57:24;25.10;65.60
18218;DHT22;9234;49.344;11.120;2023-07-20T11:00:11;25.40;65.10
18218;DHT22;9234;49.344;11.120;2023-07-20T11:02:45;25.80;64.50
18218;DHT22;9234;49.344;11.120;2023-07-20T11:05:34;26.20;64.80
18218;DHT22;9234;49.344;11.120;2023-07-20T11:08:05;26.80;60.70
18218;DHT22;9234;49.344;11.120;2023-07-20T11:10:37;26.70;57.30
18218;DHT22;9234;49.344;11.120;2023-07-20T11:13:19;26.40;57.20
18218;DHT22;9234;49.344;11.120;2023-07-20T11:16:03;26.20;57.00
18218;DHT22;9234;49.344;11.120;2023-07-20T11:18:34;25.90;56.30
18218;DHT22;9234;49.344;11.120;2023-07-20T11:21:09;25.90;56.70
18218;DHT22;9234;49.344;11.120;2023-07-20T11:23:39;26.00;55.80
18218;DHT22;9234;49.344;11.120;2023-07-20T11:26:08;26.20;54.70
18218;DHT22;9234;49.344;11.120;2023-07-20T11:28:36;26.70;55.30
18218;DHT22;9234;49.344;11.120;2023-07-20T11:31:06;27.00;53.10
18218;DHT22;9234;49.344;11.120;2023-07-20T11:33:35;27.10;53.90
18218;DHT22;9234;49.344;11.120;2023-07-20T11:36:03;27.20;55.90
18218;DHT22;9234;49.344;11.120;2023-07-20T11:38:53;27.50;55.80
18218;DHT22;9234;49.344;11.120;2023-07-20T11:41:21;27.80;54.00
18218;DHT22;9234;49.344;11.120;2023-07-20T11:43:50;27.70;55.30
18218;DHT22;9234;49.344;11.120;2023-07-20T11:46:19;27.60;53.00
18218;DHT22;9234;49.344;11.120;2023-07-20T11:48:48;27.20;53.20
18218;DHT22;9234;49.344;11.120;2023-07-20T11:51:17;27.30;54.90
18218;DHT22;9234;49.344;11.120;2023-07-20T11:53:47;27.40;54.00
18218;DHT22;9234;49.344;11.120;2023-07-20T11:56:15;27.30;52.20
18218;DHT22;9234;49.344;11.120;2023-07-20T11:58:44;27.50;52.50
18218;DHT22;9234;49.344;11.120;2023-07-20T12:01:13;27.60;50.50
18218;DHT22;9234;49.344;11.120;2023-07-20T12:03:44;27.70;51.30
18218;DHT22;9234;49.344;11.120;2023-07-20T12:06:13;27.90;48.70
18218;DHT22;9234;49.344;11.120;2023-07-20T12:08:43;27.90;48.20
18218;DHT22;9234;49.344;11.120;2023-07-20T12:11:12;28.00;48.70
18218;DHT22;9234;49.344;11.120;2023-07-20T12:13:42;28.30;48.30
18218;DHT22;9234;49.344;11.120;2023-07-20T12:16:14;28.50;46.50
18218;DHT22;9234;49.344;11.120;2023-07-20T12:18:45;28.40;45.80
18218;DHT22;9234;49.344;11.120;2023-07-20T12:21:14;28.20;45.10
18218;DHT22;9234;49.344;11.120;2023-07-20T12:23:43;28.00;45.60
18218;DHT22;9234;49.344;11.120;2023-07-20T12:26:14;28.00;47.60
18218;DHT22;9234;49.344;11.120;2023-07-20T12:28:43;28.40;48.50
18218;DHT22;9234;49.344;11.120;2023-07-20T12:31:11;28.90;47.40
18218;DHT22;9234;49.344;11.120;2023-07-20T12:33:40;29.40;46.20
18218;DHT22;9234;49.344;11.120;2023-07-20T12:36:11;29.60;45.60
18218;DHT22;9234;49.344;11.120;2023-07-20T12:38:39;29.50;44.90
18218;DHT22;9234;49.344;11.120;2023-07-20T12:41:10;29.30;45.70
18218;DHT22;9234;49.344;11.120;2023-07-20T12:43:41;29.10;46.30
18218;DHT22;9234;49.344;11.120;2023-07-20T12:46:11;29.20;45.90
18218;DHT22;9234;49.344;11.120;2023-07-20T12:48:40;29.00;45.20
18218;DHT22;9234;49.344;11.120;2023-07-20T12:51:15;28.90;44.50
18218;DHT22;9234;49.344;11.120;2023-07-20T12:53:44;28.90;45.10
18218;DHT22;9234;49.344;11.120;2023-07-20T12:56:13;29.00;44.90
18218;DHT22;9234;49.344;11.120;2023-07-20T12:58:45;29.10;43.90
18218;DHT22;9234;49.344;11.120;2023-07-20T13:01:16;29.10;44.50
18218;DHT22;9234;49.344;11.120;2023-07-20T13:03:45;29.10;44.10
18218;DHT22;9234;49.344;11.120;2023-07-20T13:06:18;29.10;44.50
18218;DHT22;9234;49.344;11.120;2023-07-20T13:08:49;29.40;45.00
18218;DHT22;9234;49.344;11.120;2023-07-20T13:11:22;29.90;43.30
18218;DHT22;9234;49.344;11.120;2023-07-20T13:13:52;29.80;42.40
18218;DHT22;9234;49.344;11.120;2023-07-20T13:16:20;29.60;42.30
18218;DHT22;9234;49.344;11.120;2023-07-20T13:18:49;29.10;43.30
18218;DHT22;9234;49.344;11.120;2023-07-20T13:21:19;28.70;43.80
18218;DHT22;9234;49.344;11.120;2023-07-20T13:23:50;28.40;44.90
18218;DHT22;9234;49.344;11.120;2023-07-20T13:26:19;28.30;46.00
18218;DHT22;9234;49.344;11.120;2023-07-20T13:28:47;28.40;45.80
18218;DHT22;9234;49.344;11.120;2023-07-20T13:31:15;28.90;46.50
18218;DHT22;9234;49.344;11.120;2023-07-20T13:33:44;29.40;44.10
18218;DHT22;9234;49.344;11.120;2023-07-20T13:36:24;29.60;44.70
18218;DHT22;9234;49.344;11.120;2023-07-20T13:38:56;30.10;44.20
18218;DHT22;9234;49.344;11.120;2023-07-20T13:41:26;30.40;43.40
18218;DHT22;9234;49.344;11.120;2023-07-20T13:43:56;30.90;43.10
18218;DHT22;9234;49.344;11.120;2023-07-20T13:46:25;31.20;42.30
18218;DHT22;9234;49.344;11.120;2023-07-20T13:48:57;31.60;42.70
18218;DHT22;9234;49.344;11.120;2023-07-20T13:51:27;31.70;41.70
18218;DHT22;9234;49.344;11.120;2023-07-20T13:53:57;31.60;41.70
18218;DHT22;9234;49.344;11.120;2023-07-20T13:56:53;31.60;42.00
18218;DHT22;9234;49.344;11.120;2023-07-20T13:59:25;31.70;42.20
18218;DHT22;9234;49.344;11.120;2023-07-20T14:01:56;32.30;41.10
18218;DHT22;9234;49.344;11.120;2023-07-20T14:04:28;32.50;40.40
18218;DHT22;9234;49.344;11.120;2023-07-20T14:06:58;32.80;39.10
18218;DHT22;9234;49.344;11.120;2023-07-20T14:09:27;32.60;38.30
18218;DHT22;9234;49.344;11.120;2023-07-20T14:11:55;32.00;38.70
18218;DHT22;9234;49.344;11.120;2023-07-20T14:14:27;31.40;38.90
18218;DHT22;9234;49.344;11.120;2023-07-20T14:16:57;31.20;39.50
18218;DHT22;9234;49.344;11.120;2023-07-20T14:19:25;31.00;37.90
18218;DHT22;9234;49.344;11.120;2023-07-20T14:21:54;30.70;38.50
18218;DHT22;9234;49.344;11.120;2023-07-20T14:24:27;30.60;38.30
18218;DHT22;9234;49.344;11.120;2023-07-20T14:26:55;30.40;39.50
18218;DHT22;9234;49.344;11.120;2023-07-20T14:29:24;30.10;39.80
18218;DHT22;9234;49.344;11.120;2023-07-20T14:31:54;30.20;39.70
18218;DHT22;9234;49.344;11.120;2023-07-20T14:34:22;30.70;38.30
18218;DHT22;9234;49.344;11.120;2023-07-20T14:36:51;31.30;37.80
18218;DHT22;9234;49.344;11.120;2023-07-20T14:39:20;31.50;36.40
18218;DHT22;9234;49.344;11.120;2023-07-20T14:41:50;31.60;36.10
18218;DHT22;9234;49.344;11.120;2023-07-20T14:44:19;32.00;36.80
18218;DHT22;9234;49.344;11.120;2023-07-20T14:46:48;32.50;37.60
18218;DHT22;9234;49.344;11.120;2023-07-20T14:49:36;33.10;37.20
18218;DHT22;9234;49.344;11.120;2023-07-20T14:52:06;33.90;35.90
18218;DHT22;9234;49.344;11.120;2023-07-20T14:54:38;34.10;35.60
18218;DHT22;9234;49.344;11.120;2023-07-20T14:57:07;34.60;35.70
18218;DHT22;9234;49.344;11.120;2023-07-20T14:59:41;34.70;33.70
18218;DHT22;9234;49.344;11.120;2023-07-20T15:02:11;34.20;33.30
18218;DHT22;9234;49.344;11.120;2023-07-20T15:04:45;34.20;34.30
18218;DHT22;9234;49.344;11.120;2023-07-20T15:07:16;33.80;32.90
18218;DHT22;9234;49.344;11.120;2023-07-20T15:09:45;33.80;34.40
18218;DHT22;9234;49.344;11.120;2023-07-20T15:12:15;33.90;34.10
18218;DHT22;9234;49.344;11.120;2023-07-20T15:14:44;34.10;33.60
18218;DHT22;9234;49.344;11.120;2023-07-20T15:17:30;33.90;33.00
18218;DHT22;9234;49.344;11.120;2023-07-20T15:19:58;33.80;33.20
18218;DHT22;9234;49.344;11.120;2023-07-20T15:22:28;34.10;34.20
18218;DHT22;9234;49.344;11.120;2023-07-20T15:25:05;34.70;34.10
18218;DHT22;9234;49.344;11.120;2023-07-20T15:27:52;34.80;34.00
18218;DHT22;9234;49.344;11.120;2023-07-20T15:30:23;34.90;34.10
18218;DHT22;9234;49.344;11.120;2023-07-20T15:32:54;35.10;33.70
18218;DHT22;9234;49.344;11.120;2023-07-20T15:35:26;35.50;33.50
18218;DHT22;9234;49.344;11.120;2023-07-20T15:37:54;35.80;34.40
18218;DHT22;9234;49.344;11.120;2023-07-20T15:40:23;36.10;32.40
18218;DHT22;9234;49.344;11.120;2023-07-20T15:42:52;36.00;33.20
18218;DHT22;9234;49.344;11.120;2023-07-20T15:45:21;36.10;33.20
18218;DHT22;9234;49.344;11.120;2023-07-20T15:47:50;36.10;32.40
18218;DHT22;9234;49.344;11.120;2023-07-20T15:50:18;35.50;32.80
18218;DHT22;9234;49.344;11.120;2023-07-20T15:52:48;35.10;33.70
18218;DHT22;9234;49.344;11.120;2023-07-20T15:55:17;34.80;33.80